Time;durP1;ratioP1;P1;durP2;ratioP2;P2;SDS_P1;SDS_P2;PMS_P1;PMS_P2;Temp;Humidity;BMP_temperature;BMP_pressure;BME280_temperature;BME280_humidity;BME280_pressure;Samples;Min_cycle;Max_cycle;Signal;HPM_P1;HPM_P2
2023/02/14 00:01:14;;;;;;;5.20;3.47;;;;;;;0.84;75.01;99680.19;6321631;28;20232;-34
2023/02/14 00:04:18;;;;;;;4.83;3.20;;;;;;;0.76;74.71;99674.75;6310214;28;20230;-35
2023/02/14 00:07:20;;;;;;;4.57;3.60;;;;;;;0.75;74.63;99676.53;6324148;28;20233;-34
2023/02/14 00:10:22;;;;;;;4.53;3.30;;;;;;;0.52;74.15;99656.66;6304220;28;20230;-35
2023/02/14 00:13:24;;;;;;;3.43;3.00;;;;;;;0.54;74.17;99680.13;6328413;28;20230;-35
2023/02/14 00:16:26;;;;;;;4.90;3.73;;;;;;;0.38;73.79;99662.22;6287893;28;20243;-35
2023/02/14 00:19:30;;;;;;;5.43;3.50;;;;;;;0.41;74.02;99677.72;6322953;28;20289;-35
2023/02/14 00:22:32;;;;;;;5.10;3.53;;;;;;;0.33;74.20;99677.50;6314745;28;20284;-34
2023/02/14 00:25:34;;;;;;;5.53;3.80;;;;;;;0.19;74.09;99676.03;6304420;28;20227;-34
2023/02/14 00:28:36;;;;;;;6.20;3.80;;;;;;;0.13;74.08;99672.13;6309058;28;20232;-34
2023/02/14 00:31:39;;;;;;;5.03;3.43;;;;;;;0.13;74.18;99672.13;6306833;28;20321;-34
2023/02/14 00:34:41;;;;;;;4.93;3.70;;;;;;;0.06;73.92;99672.78;6325718;28;20549;-34
2023/02/14 00:37:47;;;;;;;6.43;3.50;;;;;;;0.01;74.04;99673.16;6305636;28;20239;-34
2023/02/14 00:40:49;;;;;;;4.30;3.50;;;;;;;-0.07;74.44;99672.94;6271686;28;20311;-34
2023/02/14 00:43:52;;;;;;;5.73;3.83;;;;;;;-0.39;74.31;99636.28;6278704;28;20764;-34
2023/02/14 00:46:54;;;;;;;5.73;3.97;;;;;;;-0.27;74.46;99664.91;6316162;28;20726;-34
2023/02/14 00:50:01;;;;;;;5.07;3.87;;;;;;;-0.16;74.56;99676.28;6320248;28;20240;-35
2023/02/14 00:53:03;;;;;;;4.83;3.97;;;;;;;-0.24;74.81;99684.78;6293826;28;20290;-34
2023/02/14 00:56:06;;;;;;;6.43;4.00;;;;;;;-0.24;74.76;99683.94;6306601;28;20237;-35
2023/02/14 00:59:09;;;;;;;6.40;4.43;;;;;;;-0.26;75.80;99687.50;6301095;28;20707;-35
2023/02/14 01:02:11;;;;;;;7.17;4.60;;;;;;;-0.30;76.40;99662.50;6285230;28;20312;-35
2023/02/14 01:05:13;;;;;;;7.43;4.60;;;;;;;-0.13;76.20;99676.88;6290963;28;20320;-34
2023/02/14 01:08:16;;;;;;;5.77;4.10;;;;;;;-0.03;76.41;99676.97;6325699;28;20239;-35
2023/02/14 01:11:21;;;;;;;7.60;4.30;;;;;;;0.09;76.56;99672.50;6309290;28;20323;-35
2023/02/14 01:14:23;;;;;;;6.57;4.27;;;;;;;0.19;76.72;99665.53;6326477;28;20320;-35
2023/02/14 01:17:26;;;;;;;7.17;4.77;;;;;;;0.30;76.72;99665.50;6305904;28;20229;-35
2023/02/14 01:20:28;;;;;;;4.53;3.87;;;;;;;0.41;76.70;99669.84;6275177;28;20696;-34
2023/02/14 01:23:30;;;;;;;5.73;4.47;;;;;;;0.41;76.55;99648.88;6308578;28;20299;-35
2023/02/14 01:26:33;;;;;;;5.80;4.30;;;;;;;0.65;76.40;99667.78;6301577;28;20395;-35
2023/02/14 01:29:35;;;;;;;6.27;4.83;;;;;;;0.77;76.50;99658.03;6327053;28;20723;-34
2023/02/14 01:32:37;;;;;;;7.80;4.33;;;;;;;0.81;76.24;99667.31;6321583;28;20647;-35
2023/02/14 01:35:39;;;;;;;6.60;4.40;;;;;;;0.86;76.67;99661.69;6310812;28;20221;-34
2023/02/14 01:38:41;;;;;;;6.73;4.50;;;;;;;0.94;76.68;99652.19;6346121;27;20612;-34
2023/02/14 01:41:49;;;;;;;8.17;4.60;;;;;;;1.02;76.56;99651.53;6350356;27;20581;-35
2023/02/14 01:44:57;;;;;;;6.87;5.00;;;;;;;1.07;76.54;99651.13;6326623;27;20591;-35
2023/02/14 01:47:59;;;;;;;6.60;5.07;;;;;;;1.13;76.63;99640.09;6318924;28;20282;-35
2023/02/14 01:51:01;;;;;;;8.40;6.00;;;;;;;1.24;77.25;99635.59;6333052;27;20216;-34
2023/02/14 01:54:07;;;;;;;6.40;4.77;;;;;;;1.24;76.75;99635.59;6335631;27;20638;-35
2023/02/14 01:57:13;;;;;;;6.23;4.93;;;;;;;1.35;76.86;99623.31;6315788;27;20291;-35
2023/02/14 02:03:45;;;;;;;6.40;4.87;;;;;;;1.44;76.38;99609.38;6305555;28;20727;-35
2023/02/14 02:06:52;;;;;;;7.77;5.37;;;;;;;1.22;76.28;99568.41;6353493;27;20371;-35
2023/02/14 02:10:01;;;;;;;5.43;4.10;;;;;;;1.52;76.67;99601.63;6337703;27;20236;-34
2023/02/14 02:13:07;;;;;;;7.00;5.27;;;;;;;1.21;76.45;99541.34;6349971;27;20229;-35
2023/02/14 02:16:46;;;;;;;11.60;6.63;;;;;;;1.64;76.72;99599.72;6340266;27;20644;-35
2023/02/14 02:20:26;;;;;;;6.00;4.70;;;;;;;1.78;76.69;99601.94;6347140;27;20229;-35
2023/02/14 02:23:34;;;;;;;8.70;5.57;;;;;;;1.89;76.69;99591.28;6333978;27;20702;-35
2023/02/14 02:27:09;;;;;;;7.93;4.57;;;;;;;1.92;75.63;99591.03;6332257;27;20354;-34
2023/02/14 02:30:20;;;;;;;7.93;4.53;;;;;;;1.91;76.07;99589.34;6347258;27;20257;-35
2023/02/14 02:33:59;;;;;;;8.27;5.40;;;;;;;1.91;75.71;99584.06;6345793;27;20327;-35
2023/02/14 02:37:28;;;;;;;5.77;4.63;;;;;;;1.83;75.70;99581.34;6355199;27;20240;-35
2023/02/14 02:40:46;;;;;;;6.47;4.77;;;;;;;1.75;75.87;99583.81;6345109;27;20736;-35
2023/02/14 02:43:59;;;;;;;8.87;5.37;;;;;;;1.74;75.68;99579.53;6313999;28;20318;-35
2023/02/14 02:47:25;;;;;;;7.63;5.00;;;;;;;1.78;75.84;99579.13;6325182;27;20734;-35
2023/02/14 02:54:08;;;;;;;7.60;5.40;;;;;;;1.67;75.99;99570.53;6344044;27;20322;-34
2023/02/14 02:57:18;;;;;;;8.43;5.47;;;;;;;1.65;75.92;99568.06;6335339;27;20238;-35
2023/02/14 03:00:23;;;;;;;7.03;5.37;;;;;;;1.73;76.13;99568.19;6348363;27;20592;-35
2023/02/14 03:06:48;;;;;;;6.90;5.27;;;;;;;1.71;75.74;99545.66;6354782;27;20330;-35
2023/02/14 03:09:51;;;;;;;7.43;5.90;;;;;;;1.77;75.55;99572.22;6354012;27;20228;-34
2023/02/14 03:13:24;;;;;;;7.63;5.63;;;;;;;1.74;75.49;99564.59;6324998;28;20250;-35
2023/02/14 03:16:40;;;;;;;6.60;5.17;;;;;;;1.73;75.43;99562.13;6318199;28;20324;-34
2023/02/14 03:24:02;;;;;;;7.17;5.40;;;;;;;1.71;75.64;99553.53;6303991;28;20226;-35
2023/02/14 03:27:23;;;;;;;8.03;5.37;;;;;;;1.64;75.58;99553.25;6179732;28;20232;-34
2023/02/14 03:30:44;;;;;;;10.07;5.50;;;;;;;1.57;75.52;99551.31;6218771;27;20225;-34
2023/02/14 03:34:17;;;;;;;8.53;6.17;;;;;;;1.37;75.58;99525.03;6352290;27;20727;-35
2023/02/14 03:37:33;;;;;;;7.37;5.17;;;;;;;1.49;75.67;99549.41;6285801;28;20243;-35
2023/02/14 03:40:43;;;;;;;7.80;5.07;;;;;;;1.50;75.72;99546.63;6313435;28;20238;-35
2023/02/14 03:43:52;;;;;;;7.77;5.67;;;;;;;1.37;75.20;99550.47;6335450;27;20295;-34
2023/02/14 03:47:00;;;;;;;8.67;5.97;;;;;;;1.33;75.26;99542.06;6334525;27;20238;-35
2023/02/14 03:50:08;;;;;;;9.07;5.80;;;;;;;1.15;75.25;99541.06;6348114;27;20229;-35
2023/02/14 03:53:13;;;;;;;8.57;5.50;;;;;;;1.03;75.61;99546.44;6338862;27;20231;-35
2023/02/14 03:56:34;;;;;;;8.73;5.70;;;;;;;0.93;75.44;99540.31;6342102;27;20753;-34
2023/02/14 03:59:36;;;;;;;9.00;6.03;;;;;;;0.86;75.56;99536.56;6353726;27;20224;-34
2023/02/14 04:02:49;;;;;;;7.67;5.43;;;;;;;0.77;75.96;99514.59;6352262;27;20236;-35
2023/02/14 04:05:51;;;;;;;7.43;5.27;;;;;;;0.73;75.40;99530.72;6353560;27;20313;-35
2023/02/14 04:08:53;;;;;;;10.93;6.03;;;;;;;0.76;75.84;99533.09;6332229;27;20228;-35
2023/02/14 04:11:55;;;;;;;9.90;6.53;;;;;;;0.60;76.07;99525.75;6329346;27;20229;-34
2023/02/14 04:14:57;;;;;;;8.20;5.97;;;;;;;0.62;76.30;99525.59;6350895;27;20605;-34
2023/02/14 04:21:20;;;;;;;8.60;5.50;;;;;;;0.20;76.24;99466.25;6342182;27;20707;-34
2023/02/14 04:24:22;;;;;;;7.90;5.50;;;;;;;0.55;75.69;99524.47;6345553;27;20510;-34
2023/02/14 04:27:24;;;;;;;7.70;5.53;;;;;;;0.19;75.73;99480.31;6337236;27;20232;-35
2023/02/14 04:30:26;;;;;;;7.43;5.33;;;;;;;0.34;75.49;99524.50;6338042;27;20224;-34
2023/02/14 04:33:28;;;;;;;8.03;5.60;;;;;;;0.26;75.75;99504.22;6350594;27;20231;-35
2023/02/14 04:36:30;;;;;;;8.30;5.40;;;;;;;0.17;76.05;99497.97;6337139;27;20226;-35
2023/02/14 04:39:32;;;;;;;9.57;6.23;;;;;;;0.07;75.98;99494.47;6350689;27;20228;-35
2023/02/14 04:42:34;;;;;;;10.00;6.30;;;;;;;0.11;76.70;99511.59;6328537;28;20228;-34
2023/02/14 04:45:36;;;;;;;10.97;5.97;;;;;;;0.11;77.28;99506.34;6310261;28;20224;-34
2023/02/14 04:48:38;;;;;;;7.70;5.53;;;;;;;0.12;77.23;99501.94;6342081;27;20221;-34
2023/02/14 04:51:41;;;;;;;9.70;5.87;;;;;;;0.10;77.58;99501.22;6343246;27;20253;-34
2023/02/14 04:54:43;;;;;;;9.43;6.17;;;;;;;0.16;77.91;99503.34;6353667;27;20259;-34
2023/02/14 04:57:45;;;;;;;9.80;6.57;;;;;;;0.10;78.19;99488.97;6353320;27;20368;-34
2023/02/14 05:00:47;;;;;;;9.53;5.93;;;;;;;0.16;77.79;99506.78;6347962;27;20257;-34
2023/02/14 05:03:49;;;;;;;8.50;5.60;;;;;;;0.25;77.66;99502.56;6335480;27;20333;-35
2023/02/14 05:06:51;;;;;;;8.07;5.60;;;;;;;0.28;77.62;99501.44;6353382;27;20603;-34
2023/02/14 05:09:53;;;;;;;8.03;5.90;;;;;;;-0.05;77.17;99459.66;6351591;28;20236;-34
2023/02/14 05:12:55;;;;;;;10.10;6.23;;;;;;;0.28;77.76;99509.31;6351029;28;20266;-34
2023/02/14 05:15:57;;;;;;;10.60;5.97;;;;;;;0.28;77.16;99501.44;6344106;27;20243;-35
2023/02/14 05:18:59;;;;;;;8.53;5.90;;;;;;;0.30;77.14;99515.28;6313348;28;20677;-35
2023/02/14 05:22:02;;;;;;;9.80;5.47;;;;;;;0.33;77.43;99512.38;6342218;27;20266;-35
2023/02/14 05:25:04;;;;;;;9.40;5.80;;;;;;;0.37;77.25;99516.41;6356812;27;20707;-35
2023/02/14 05:28:06;;;;;;;9.07;5.80;;;;;;;0.39;77.16;99514.47;6357655;27;20230;-35
2023/02/14 05:31:08;;;;;;;9.50;6.17;;;;;;;0.37;77.28;99519.00;6328426;27;20704;-34
2023/02/14 05:34:11;;;;;;;9.57;6.40;;;;;;;0.27;77.05;99486.69;6356138;27;20699;-34
2023/02/14 05:37:13;;;;;;;9.30;6.47;;;;;;;0.50;77.57;99517.84;6337183;27;20230;-34
2023/02/14 05:40:15;;;;;;;8.53;5.60;;;;;;;0.52;77.09;99518.53;6330739;28;20236;-35
2023/02/14 05:43:17;;;;;;;7.77;5.83;;;;;;;0.48;77.24;99516.28;6346956;27;20229;-34
2023/02/14 05:46:19;;;;;;;10.40;6.63;;;;;;;0.49;77.71;99517.94;6352927;27;20228;-35
2023/02/14 05:49:21;;;;;;;11.30;6.83;;;;;;;0.53;78.31;99501.00;6356654;27;20231;-35
2023/02/14 05:52:23;;;;;;;11.70;6.97;;;;;;;0.46;78.51;99478.91;6354078;27;20230;-35
2023/02/14 05:55:25;;;;;;;9.67;6.97;;;;;;;0.63;78.60;99480.03;6314071;27;20259;-35
2023/02/14 05:58:27;;;;;;;11.27;7.13;;;;;;;0.93;78.51;99503.56;6356597;27;20703;-34
2023/02/14 06:01:29;;;;;;;14.10;8.53;;;;;;;1.01;79.06;99509.00;6354255;27;20256;-35
2023/02/14 06:04:31;;;;;;;14.33;9.50;;;;;;;1.29;79.52;99510.00;6356201;27;20891;-34
2023/02/14 06:07:33;;;;;;;18.43;10.77;;;;;;;1.59;79.62;99512.63;6356743;27;20769;-35
2023/02/14 06:10:35;;;;;;;17.47;10.80;;;;;;;1.98;78.61;99510.78;6345953;27;20234;-35
2023/02/14 06:13:40;;;;;;;17.77;11.00;;;;;;;2.04;77.91;99518.09;6314900;28;20235;-34
2023/02/14 06:16:42;;;;;;;15.80;9.10;;;;;;;2.04;76.83;99515.47;6317291;27;20383;-34
2023/02/14 06:19:44;;;;;;;13.47;9.37;;;;;;;2.02;77.23;99520.00;6356287;27;20317;-35
2023/02/14 06:22:46;;;;;;;15.37;10.37;;;;;;;2.08;77.44;99518.63;6355383;27;20628;-34
2023/02/14 06:25:48;;;;;;;14.93;9.17;;;;;;;2.17;76.89;99526.50;6354697;27;20390;-35
2023/02/14 06:28:55;;;;;;;11.07;7.63;;;;;;;2.01;76.19;99518.34;6336637;27;20227;-34
2023/02/14 06:31:57;;;;;;;15.47;10.13;;;;;;;2.03;77.22;99516.44;6348295;27;20253;-34
2023/02/14 06:34:59;;;;;;;13.57;8.80;;;;;;;2.13;76.80;99509.34;6355912;27;20636;-35
2023/02/14 06:38:01;;;;;;;14.03;9.50;;;;;;;2.15;76.88;99519.72;6346620;27;20226;-34
2023/02/14 06:41:05;;;;;;;13.27;9.03;;;;;;;2.00;76.27;99522.78;6345093;27;20234;-35
2023/02/14 06:44:09;;;;;;;12.13;8.87;;;;;;;2.04;75.99;99523.34;6332132;27;20225;-35
2023/02/14 06:47:11;;;;;;;12.17;8.60;;;;;;;2.11;76.09;99532.31;6330824;27;20221;-34
2023/02/14 06:50:13;;;;;;;14.87;10.00;;;;;;;2.15;76.51;99527.59;6355186;27;20229;-34
2023/02/14 06:53:15;;;;;;;16.37;10.13;;;;;;;2.22;76.66;99526.06;6354554;27;20224;-35
2023/02/14 06:56:17;;;;;;;14.80;9.70;;;;;;;2.41;76.47;99525.16;6342404;27;20750;-35
2023/02/14 06:59:18;;;;;;;12.63;8.93;;;;;;;2.46;75.50;99525.56;6345795;27;20235;-35
2023/02/14 07:02:21;;;;;;;13.67;8.80;;;;;;;2.48;75.31;99523.63;6336549;27;20256;-35
2023/02/14 07:05:25;;;;;;;10.90;8.70;;;;;;;2.55;76.02;99535.22;6340022;27;20306;-35
2023/02/14 07:08:27;;;;;;;13.83;9.57;;;;;;;2.73;75.52;99522.13;6354140;27;20701;-35
2023/02/14 07:11:30;;;;;;;11.07;8.07;;;;;;;2.72;75.18;99526.56;6354368;27;20225;-35
2023/02/14 07:14:32;;;;;;;11.37;8.37;;;;;;;2.73;75.12;99532.66;6354658;27;20550;-34
2023/02/14 07:17:34;;;;;;;15.93;10.77;;;;;;;2.75;75.03;99523.63;6330681;27;20233;-34
2023/02/14 07:20:36;;;;;;;12.43;9.00;;;;;;;2.77;75.21;99523.50;6330682;27;20250;-35
2023/02/14 07:23:38;;;;;;;14.40;10.47;;;;;;;2.92;74.52;99535.19;6346607;27;20762;-35
2023/02/14 07:26:40;;;;;;;16.13;9.90;;;;;;;3.01;74.15;99528.22;6340573;27;20224;-35
2023/02/14 07:29:42;;;;;;;13.63;9.53;;;;;;;3.11;73.96;99528.97;6321662;27;20320;-35
2023/02/14 07:32:44;;;;;;;12.37;9.30;;;;;;;3.09;73.64;99528.28;6343946;27;20324;-34
2023/02/14 07:35:46;;;;;;;12.83;9.70;;;;;;;3.10;73.32;99535.19;6331146;27;20235;-35
2023/02/14 07:38:48;;;;;;;16.23;10.47;;;;;;;3.12;73.41;99535.06;6328667;28;20229;-35
2023/02/14 07:41:50;;;;;;;13.60;8.97;;;;;;;3.19;73.01;99541.41;6332650;27;20251;-35
2023/02/14 07:44:53;;;;;;;13.20;9.30;;;;;;;3.29;72.90;99544.78;6351097;27;20269;-35
2023/02/14 07:47:57;;;;;;;14.83;10.27;;;;;;;3.33;72.32;99549.59;6353033;27;20581;-34
2023/02/14 07:51:00;;;;;;;15.73;10.20;;;;;;;3.35;72.35;99558.22;6353239;27;20238;-35
2023/02/14 07:54:02;;;;;;;11.83;8.73;;;;;;;3.45;72.13;99552.88;6329479;27;20225;-35
2023/02/14 07:57:05;;;;;;;13.03;8.93;;;;;;;3.56;71.85;99544.72;6336892;27;20612;-35
2023/02/14 08:00:08;;;;;;;12.63;9.20;;;;;;;3.25;71.58;99507.41;6353132;27;20617;-35
2023/02/14 08:03:13;;;;;;;11.60;8.43;;;;;;;3.61;71.34;99552.19;6353547;27;20200;-35
2023/02/14 08:06:17;;;;;;;12.03;9.37;;;;;;;3.65;71.16;99552.72;6353360;27;20699;-35
2023/02/14 08:09:23;;;;;;;13.23;9.70;;;;;;;3.59;71.35;99565.50;6329399;27;20718;-35
2023/02/14 08:16:04;;;;;;;13.20;8.97;;;;;;;3.66;71.44;99572.81;6339062;27;20240;-35
2023/02/14 08:19:07;;;;;;;12.03;9.03;;;;;;;3.78;71.24;99561.88;6346660;27;20231;-35
2023/02/14 08:22:09;;;;;;;12.10;8.80;;;;;;;3.86;71.01;99580.41;6348924;27;20232;-35
2023/02/14 08:25:11;;;;;;;15.23;10.17;;;;;;;3.87;70.76;99574.16;6352708;27;20301;-35
2023/02/14 08:28:13;;;;;;;12.60;8.97;;;;;;;4.00;70.84;99573.78;6327697;27;20332;-34
2023/02/14 08:31:28;;;;;;;12.37;9.17;;;;;;;4.16;70.57;99572.25;6351407;27;20263;-35
2023/02/14 08:34:36;;;;;;;13.27;9.33;;;;;;;4.23;70.20;99584.63;6352994;27;20224;-35
2023/02/14 08:37:38;;;;;;;12.37;9.53;;;;;;;4.24;70.02;99581.03;6357380;27;20770;-35
2023/02/14 08:40:42;;;;;;;13.10;8.87;;;;;;;4.08;70.44;99539.53;6341962;27;20240;-35
2023/02/14 08:43:44;;;;;;;11.67;8.43;;;;;;;4.17;70.06;99543.06;6350352;27;20236;-35
2023/02/14 08:46:46;;;;;;;13.77;9.07;;;;;;;4.49;70.07;99583.84;6335403;27;20233;-35
2023/02/14 08:49:49;;;;;;;12.97;9.23;;;;;;;4.48;69.56;99580.34;6342152;27;20697;-35
2023/02/14 08:52:51;;;;;;;11.77;8.57;;;;;;;4.53;69.22;99591.28;6351491;27;20233;-35
2023/02/14 08:55:53;;;;;;;12.10;8.23;;;;;;;4.50;69.29;99588.13;6352797;27;20726;-35
2023/02/14 08:58:55;;;;;;;12.50;8.50;;;;;;;4.24;69.65;99546.75;6350605;27;20230;-35
2023/02/14 09:01:57;;;;;;;11.27;8.10;;;;;;;4.54;69.51;99598.22;6348375;27;20224;-35
2023/02/14 09:04:59;;;;;;;10.03;7.93;;;;;;;4.54;69.74;99606.16;6326239;28;20228;-35
2023/02/14 09:08:02;;;;;;;11.20;7.90;;;;;;;4.60;69.59;99604.69;6350372;27;20323;-35
2023/02/14 09:11:31;;;;;;;12.57;8.40;;;;;;;4.59;69.30;99593.31;6351384;27;21036;-35
2023/02/14 09:14:35;;;;;;;12.83;8.77;;;;;;;4.34;69.42;99555.38;6347982;28;20372;-35
2023/02/14 09:17:38;;;;;;;9.93;7.13;;;;;;;4.46;69.83;99603.44;6345330;28;20700;-35
2023/02/14 09:20:40;;;;;;;10.13;7.77;;;;;;;4.38;70.13;99620.06;6339404;28;20221;-35
2023/02/14 09:23:42;;;;;;;11.73;8.03;;;;;;;4.52;69.96;99615.19;6337367;28;20237;-35
2023/02/14 09:26:44;;;;;;;11.47;8.47;;;;;;;4.42;70.12;99612.66;6339707;28;20231;-35
2023/02/14 09:29:46;;;;;;;12.03;8.30;;;;;;;4.23;70.10;99597.00;6350481;28;20227;-35
2023/02/14 09:32:50;;;;;;;12.63;9.43;;;;;;;4.16;70.09;99580.16;6349564;28;20232;-35
2023/02/14 09:35:52;;;;;;;12.33;8.33;;;;;;;4.42;70.28;99622.38;6325209;28;20244;-35
2023/02/14 09:38:54;;;;;;;10.10;7.63;;;;;;;4.45;70.69;99617.63;6329348;28;20232;-35
2023/02/14 09:42:03;;;;;;;13.10;8.87;;;;;;;4.53;69.99;99622.13;6345716;28;20228;-35
2023/02/14 09:45:11;;;;;;;12.13;9.83;;;;;;;4.43;70.15;99621.38;6328224;28;20365;-36
2023/02/14 09:48:18;;;;;;;14.57;9.83;;;;;;;4.42;70.10;99619.72;6338048;28;20594;-35
2023/02/14 09:51:24;;;;;;;14.23;10.13;;;;;;;4.47;69.88;99614.81;6330056;28;20247;-35
2023/02/14 09:54:29;;;;;;;12.33;9.17;;;;;;;4.55;70.03;99610.44;6326967;28;20225;-35
2023/02/14 09:58:03;;;;;;;13.87;9.30;;;;;;;4.58;69.76;99623.34;6333270;28;20233;-35
2023/02/14 10:01:18;;;;;;;13.47;9.63;;;;;;;4.71;69.55;99617.63;6317443;27;20228;-35
2023/02/14 10:04:53;;;;;;;14.63;9.93;;;;;;;4.68;68.99;99601.25;6356433;27;20224;-35
2023/02/14 10:08:02;;;;;;;13.67;9.37;;;;;;;4.83;68.93;99621.66;6356169;27;20222;-35
2023/02/14 10:11:18;;;;;;;13.37;9.13;;;;;;;4.78;69.12;99613.38;6353608;27;20221;-35
2023/02/14 10:14:28;;;;;;;13.50;9.93;;;;;;;4.86;68.91;99620.50;6333049;27;20217;-35
2023/02/14 10:17:54;;;;;;;14.33;10.20;;;;;;;4.79;69.13;99622.94;6333743;27;20233;-35
2023/02/14 10:20:59;;;;;;;15.83;10.80;;;;;;;4.83;68.74;99619.00;6355476;27;20317;-35
2023/02/14 10:24:16;;;;;;;13.87;10.20;;;;;;;4.82;68.96;99629.72;6355262;27;20217;-36
2023/02/14 10:27:35;;;;;;;14.03;9.40;;;;;;;4.84;68.76;99625.13;6343006;27;20812;-35
2023/02/14 10:30:41;;;;;;;16.50;11.07;;;;;;;4.76;69.06;99620.59;6333779;27;20245;-35
2023/02/14 10:33:50;;;;;;;17.97;12.17;;;;;;;4.75;69.05;99615.50;6351150;27;20233;-35
2023/02/14 10:37:19;;;;;;;16.17;11.27;;;;;;;4.76;68.98;99612.69;6355344;27;20234;-35
2023/02/14 10:40:38;;;;;;;16.60;11.30;;;;;;;4.74;69.01;99606.75;6346188;27;20583;-35
2023/02/14 10:44:03;;;;;;;16.40;10.73;;;;;;;4.79;68.91;99608.94;6318513;28;20233;-35
2023/02/14 10:47:30;;;;;;;18.30;12.03;;;;;;;4.73;68.38;99607.75;6344077;27;20270;-35
2023/02/14 10:50:43;;;;;;;16.37;11.03;;;;;;;4.76;68.19;99601.31;6355936;27;20224;-35
2023/02/14 10:54:15;;;;;;;18.83;11.93;;;;;;;4.80;68.42;99598.19;6354434;27;20719;-35
2023/02/14 10:57:32;;;;;;;18.73;12.37;;;;;;;4.83;68.41;99603.16;6347052;27;20855;-35
2023/02/14 11:00:38;;;;;;;17.50;12.30;;;;;;;4.94;67.83;99601.25;6354924;27;20713;-35
2023/02/14 11:04:05;;;;;;;18.27;12.57;;;;;;;4.82;67.96;99596.22;6342907;27;20266;-35
2023/02/14 11:07:15;;;;;;;21.67;13.37;;;;;;;4.72;68.04;99594.69;6341597;27;20366;-35
2023/02/14 11:10:23;;;;;;;19.80;13.27;;;;;;;4.83;67.54;99600.53;6345079;27;20297;-35
2023/02/14 11:13:35;;;;;;;16.70;11.40;;;;;;;4.94;67.47;99588.84;6352290;27;20277;-35
2023/02/14 11:16:37;;;;;;;18.13;11.90;;;;;;;4.97;67.46;99582.41;6341384;27;20712;-35
2023/02/14 11:19:39;;;;;;;17.93;13.30;;;;;;;5.05;66.99;99574.53;6332112;27;20431;-35
2023/02/14 11:22:41;;;;;;;18.43;12.00;;;;;;;5.08;66.89;99575.06;6312331;27;20234;-35
2023/02/14 11:25:54;;;;;;;16.60;12.23;;;;;;;5.06;66.77;99565.63;6352690;27;20233;-35
2023/02/14 11:29:08;;;;;;;17.47;13.23;;;;;;;5.01;66.50;99557.34;6345546;27;20447;-35
2023/02/14 11:32:18;;;;;;;18.23;12.67;;;;;;;4.92;66.63;99559.13;6350218;27;20233;-35
2023/02/14 11:35:26;;;;;;;19.77;13.03;;;;;;;5.10;66.82;99573.06;6344183;27;20222;-36
2023/02/14 11:38:35;;;;;;;15.83;11.50;;;;;;;5.15;66.61;99572.59;6335919;27;20303;-35
2023/02/14 11:41:52;;;;;;;16.13;11.37;;;;;;;5.28;66.31;99564.22;6340498;27;20601;-35
2023/02/14 11:44:55;;;;;;;17.70;11.90;;;;;;;5.27;65.96;99568.69;6354180;27;20311;-35
2023/02/14 11:48:14;;;;;;;18.47;12.70;;;;;;;5.26;65.84;99560.88;6344379;27;20720;-35
2023/02/14 11:51:30;;;;;;;15.77;11.57;;;;;;;5.11;65.97;99531.63;6351038;27;20754;-36
2023/02/14 11:54:38;;;;;;;16.73;11.10;;;;;;;5.42;65.55;99553.03;6350504;27;20688;-35
2023/02/14 11:57:40;;;;;;;17.93;11.93;;;;;;;5.53;65.39;99554.50;6330109;27;20370;-35
2023/02/14 12:00:51;;;;;;;17.80;11.97;;;;;;;5.60;64.92;99550.22;6353355;27;20237;-35
2023/02/14 12:03:55;;;;;;;16.03;11.43;;;;;;;5.54;64.87;99550.88;6352956;27;20228;-35
2023/02/14 12:07:20;;;;;;;14.80;10.27;;;;;;;5.61;64.72;99544.75;6329717;27;20291;-35
2023/02/14 12:10:34;;;;;;;14.57;10.43;;;;;;;5.57;64.80;99548.75;6325295;27;20226;-35
2023/02/14 12:13:36;;;;;;;13.87;10.27;;;;;;;5.59;64.78;99536.19;6333770;27;20229;-35
2023/02/14 12:16:46;;;;;;;16.13;11.47;;;;;;;5.61;64.37;99541.28;6330117;27;20232;-35
2023/02/14 12:19:51;;;;;;;15.60;10.27;;;;;;;5.65;64.08;99529.41;6330009;27;20466;-35
2023/02/14 12:23:19;;;;;;;17.57;11.20;;;;;;;5.60;64.15;99523.78;6340246;27;20273;-35
2023/02/14 12:26:33;;;;;;;13.87;9.77;;;;;;;5.66;64.12;99525.75;6352224;27;20227;-36
2023/02/14 12:29:44;;;;;;;18.13;11.70;;;;;;;5.48;64.06;99525.09;6343367;27;20234;-35
2023/02/14 12:32:50;;;;;;;14.27;10.13;;;;;;;5.37;64.16;99502.47;6331221;27;20218;-35
2023/02/14 12:36:16;;;;;;;15.33;10.90;;;;;;;5.55;64.34;99521.63;6333218;27;20303;-35
2023/02/14 12:39:52;;;;;;;14.33;10.40;;;;;;;5.65;63.99;99524.09;6351407;27;20235;-35
2023/02/14 12:43:14;;;;;;;16.80;11.27;;;;;;;5.59;63.76;99515.03;6315980;27;20225;-35
2023/02/14 12:46:40;;;;;;;17.10;11.93;;;;;;;5.50;64.61;99513.38;6344059;27;20722;-35
2023/02/14 12:50:29;;;;;;;17.27;11.73;;;;;;;5.61;64.23;99512.22;6314185;27;20279;-35
2023/02/14 12:53:33;;;;;;;17.70;10.90;;;;;;;5.78;63.65;99503.31;6227423;28;20244;-35
2023/02/14 12:56:54;;;;;;;16.83;11.03;;;;;;;5.89;63.69;99512.72;6344766;27;20219;-35
2023/02/14 13:00:30;;;;;;;17.37;11.87;;;;;;;5.83;63.10;99508.91;6354181;27;20706;-35
2023/02/14 13:03:57;;;;;;;14.20;10.33;;;;;;;5.93;62.78;99501.66;6345482;27;20220;-35
2023/02/14 13:07:14;;;;;;;14.97;10.63;;;;;;;5.92;62.73;99507.94;6332818;27;20626;-35
2023/02/14 13:10:44;;;;;;;17.87;10.70;;;;;;;5.90;62.67;99501.13;6349009;27;20230;-35
2023/02/14 13:13:46;;;;;;;16.67;12.00;;;;;;;5.81;62.94;99510.06;6351532;27;20319;-35
2023/02/14 13:16:59;;;;;;;14.77;10.90;;;;;;;5.89;62.88;99510.88;6333781;28;20242;-35
2023/02/14 13:20:27;;;;;;;14.07;9.83;;;;;;;5.99;62.89;99510.75;6352146;28;20319;-35
2023/02/14 13:23:39;;;;;;;16.33;12.10;;;;;;;6.06;62.30;99508.25;6300772;28;20605;-35
2023/02/14 13:26:47;;;;;;;16.77;11.93;;;;;;;6.02;62.39;99509.59;6299557;28;20235;-35
2023/02/14 13:29:53;;;;;;;17.33;11.47;;;;;;;5.87;62.88;99510.25;6346940;28;20246;-35
2023/02/14 13:33:00;;;;;;;15.63;10.60;;;;;;;5.98;62.67;99508.28;6349600;28;20241;-35
2023/02/14 13:36:08;;;;;;;16.23;10.73;;;;;;;6.13;62.29;99503.94;6352853;27;20619;-36
2023/02/14 13:39:38;;;;;;;13.83;10.93;;;;;;;6.18;62.04;99502.44;6342356;27;20222;-36
2023/02/14 13:42:45;;;;;;;15.97;11.37;;;;;;;6.17;61.91;99502.63;6339112;27;20238;-35
2023/02/14 13:45:52;;;;;;;15.17;11.07;;;;;;;6.13;61.88;99494.19;6342370;27;20344;-35
2023/02/14 13:49:18;;;;;;;18.20;11.73;;;;;;;6.11;61.64;99504.13;6342561;27;20253;-35
2023/02/14 13:52:46;;;;;;;16.70;11.53;;;;;;;6.04;61.69;99487.25;6357374;27;20236;-35
2023/02/14 13:55:54;;;;;;;15.50;10.93;;;;;;;6.11;61.78;99490.91;6346421;27;20226;-35
2023/02/14 13:59:04;;;;;;;17.27;12.20;;;;;;;6.08;61.73;99493.03;6314707;28;20228;-35
2023/02/14 14:02:27;;;;;;;15.30;10.70;;;;;;;6.06;61.76;99487.09;6318116;27;20225;-36
2023/02/14 14:05:41;;;;;;;15.40;11.47;;;;;;;5.90;62.24;99480.78;6337877;27;20695;-35
2023/02/14 14:08:46;;;;;;;16.57;11.63;;;;;;;5.83;62.37;99486.94;6335122;27;20664;-35
2023/02/14 14:11:49;;;;;;;16.50;12.43;;;;;;;5.76;62.37;99492.03;6338376;27;20239;-35
2023/02/14 14:15:04;;;;;;;17.80;11.53;;;;;;;5.79;62.31;99497.00;6331324;27;20231;-35
2023/02/14 14:18:12;;;;;;;16.33;12.07;;;;;;;5.75;62.48;99490.41;6354553;27;20231;-36
2023/02/14 14:21:35;;;;;;;14.53;11.33;;;;;;;5.73;62.72;99481.81;6337096;27;20244;-35
2023/02/14 14:24:39;;;;;;;15.93;12.07;;;;;;;5.73;62.67;99479.16;6351762;27;20629;-35
2023/02/14 14:27:44;;;;;;;16.33;12.00;;;;;;;5.50;62.70;99447.28;6350916;27;20237;-35
2023/02/14 14:30:47;;;;;;;18.53;13.03;;;;;;;5.71;62.06;99478.50;6338052;27;20242;-35
2023/02/14 14:33:57;;;;;;;14.43;10.47;;;;;;;5.77;62.28;99487.59;6342480;27;20230;-35
2023/02/14 14:37:14;;;;;;;16.00;11.57;;;;;;;5.79;62.11;99469.75;6355093;27;20780;-35
2023/02/14 14:40:24;;;;;;;18.53;12.13;;;;;;;5.76;61.79;99465.59;6344624;27;20649;-35
2023/02/14 14:43:31;;;;;;;16.10;11.30;;;;;;;5.84;61.73;99467.41;6337129;27;20639;-35
2023/02/14 14:46:33;;;;;;;16.40;11.70;;;;;;;5.89;61.75;99454.53;6353002;27;20214;-35
2023/02/14 14:49:36;;;;;;;17.17;12.27;;;;;;;5.89;61.44;99454.53;6312081;27;20261;-35
2023/02/14 14:52:42;;;;;;;16.07;11.17;;;;;;;5.76;61.47;99436.50;6355022;27;20330;-35
2023/02/14 14:55:50;;;;;;;15.13;10.93;;;;;;;5.87;61.32;99444.13;6330771;27;20234;-36
2023/02/14 14:58:56;;;;;;;16.63;12.20;;;;;;;5.63;61.73;99454.72;6329398;27;20236;-35
2023/02/14 15:02:01;;;;;;;14.23;10.90;;;;;;;5.67;61.80;99440.19;6346325;27;20312;-36
2023/02/14 15:05:23;;;;;;;14.63;11.30;;;;;;;5.51;61.32;99434.88;6333269;27;20253;-35
2023/02/14 15:08:26;;;;;;;13.87;10.47;;;;;;;5.67;61.57;99454.22;6317081;28;20710;-35